Time;durP1;ratioP1;P1;durP2;ratioP2;P2;SDS_P1;SDS_P2;PMS_P1;PMS_P2;Temp;Humidity;BMP_temperature;BMP_pressure;BME280_temperature;BME280_humidity;BME280_pressure;Samples;Min_cycle;Max_cycle;Signal;HPM_P1;HPM_P2
2021/12/25 00:02:23;;;;;;;4.75;4.55;;;;;;;5.36;100.00;100023.53;4349420;32;20093;-74
2021/12/25 00:04:49;;;;;;;3.50;3.40;;;;;;;5.34;100.00;100033.16;4350825;32;20076;-74
2021/12/25 00:07:14;;;;;;;4.45;4.28;;;;;;;5.19;100.00;100003.44;4351195;32;20136;-73
2021/12/25 00:09:39;;;;;;;3.30;3.20;;;;;;;5.27;100.00;100018.72;4355913;32;20092;-74
2021/12/25 00:12:05;;;;;;;3.40;3.30;;;;;;;5.28;100.00;100019.56;4357067;32;20148;-73
2021/12/25 00:14:30;;;;;;;4.55;4.35;;;;;;;5.28;100.00;100027.37;4355290;32;20062;-73
2021/12/25 00:16:58;;;;;;;4.10;3.90;;;;;;;5.23;100.00;100016.28;4348409;32;20456;-73
2021/12/25 00:19:23;;;;;;;5.45;5.25;;;;;;;5.31;100.00;100027.22;4350360;32;20666;-74
2021/12/25 00:21:49;;;;;;;3.37;3.28;;;;;;;5.33;100.00;100021.06;4349455;32;20080;-72
2021/12/25 00:24:14;;;;;;;4.20;4.00;;;;;;;5.33;100.00;100020.22;4350095;32;20826;-74
2021/12/25 00:26:51;;;;;;;3.22;3.12;;;;;;;5.26;100.00;100027.44;4344403;32;20164;-76
2021/12/25 00:29:52;;;;;;;4.80;4.60;;;;;;;5.26;100.00;100024.81;4353128;32;20073;-72
2021/12/25 00:34:46;;;;;;;3.30;3.20;;;;;;;5.29;100.00;100023.84;4352941;32;20073;-74
2021/12/25 00:37:11;;;;;;;3.50;3.40;;;;;;;5.23;100.00;100013.69;4349288;32;20521;-75
2021/12/25 00:39:36;;;;;;;3.40;3.30;;;;;;;5.12;100.00;99998.53;4348648;32;20081;-74
2021/12/25 00:42:02;;;;;;;3.40;3.30;;;;;;;5.31;100.00;100027.22;4338286;32;20619;-74
2021/12/25 00:44:28;;;;;;;5.25;5.05;;;;;;;5.26;100.00;100022.22;4356004;32;20093;-75
2021/12/25 00:46:55;;;;;;;3.30;3.20;;;;;;;5.22;100.00;100022.41;4354518;32;20635;-74
2021/12/25 00:49:20;;;;;;;5.18;4.97;;;;;;;5.20;100.00;100015.50;4349967;32;20167;-75
2021/12/25 00:51:46;;;;;;;3.30;3.20;;;;;;;5.20;100.00;100017.28;4356308;32;20405;-75
2021/12/25 00:54:11;;;;;;;3.15;3.05;;;;;;;5.16;100.00;100021.75;4357850;32;20069;-74
2021/12/25 00:56:37;;;;;;;3.50;3.40;;;;;;;4.63;100.00;99941.56;4350473;32;20205;-73
2021/12/25 00:59:02;;;;;;;3.80;3.60;;;;;;;5.12;100.00;100022.78;4349746;32;20082;-74
2021/12/25 01:01:27;;;;;;;5.75;5.47;;;;;;;5.11;100.00;100015.91;4351937;32;20344;-75
2021/12/25 01:03:53;;;;;;;3.40;3.30;;;;;;;5.08;100.00;100025.59;4341494;32;20073;-74
2021/12/25 01:06:18;;;;;;;5.22;5.03;;;;;;;5.08;100.00;100020.37;4347872;32;20075;-76
2021/12/25 01:08:43;;;;;;;3.10;3.00;;;;;;;5.06;100.00;100023.03;4341602;32;20144;-75
2021/12/25 01:11:09;;;;;;;3.33;3.22;;;;;;;5.07;100.00;100018.66;4351893;32;20780;-73
2021/12/25 01:13:40;;;;;;;3.20;3.10;;;;;;;4.91;100.00;100002.84;4354890;32;20072;-76
2021/12/25 01:26:47;;;;;;;4.87;4.68;;;;;;;4.94;100.00;100016.56;4351397;32;20089;-74
2021/12/25 01:49:53;;;;;;;4.45;4.07;;;;;;;4.74;100.00;100012.16;4360670;32;20088;-73
2021/12/25 01:52:25;;;;;;;3.62;3.50;;;;;;;4.73;100.00;100005.28;4352301;32;20470;-75
2021/12/25 01:54:50;;;;;;;3.00;2.90;;;;;;;4.76;100.00;100005.16;4364422;32;20563;-74
2021/12/25 01:57:15;;;;;;;3.08;2.97;;;;;;;4.75;100.00;100011.25;4350406;32;20081;-74
2021/12/25 01:59:41;;;;;;;3.47;3.37;;;;;;;4.73;100.00;100020.88;4357623;32;20081;-75
2021/12/25 02:02:06;;;;;;;3.40;3.30;;;;;;;4.70;100.00;100020.97;4356333;32;20152;-75
2021/12/25 02:04:31;;;;;;;3.78;3.65;;;;;;;4.72;100.00;100018.34;4357787;32;20066;-75
2021/12/25 02:06:57;;;;;;;3.40;3.30;;;;;;;4.70;100.00;100020.13;4357002;32;20070;-73
2021/12/25 02:09:22;;;;;;;4.37;4.18;;;;;;;4.60;100.00;99997.09;4359893;32;20578;-74
2021/12/25 02:11:48;;;;;;;3.20;3.10;;;;;;;4.56;100.00;99997.28;4357507;32;20953;-73
2021/12/25 02:14:13;;;;;;;3.33;3.22;;;;;;;4.64;100.00;100023.81;4360551;32;20076;-76
2021/12/25 02:16:54;;;;;;;3.25;3.15;;;;;;;4.64;100.00;100020.37;4353884;32;20117;-74
2021/12/25 02:19:41;;;;;;;4.70;4.50;;;;;;;4.04;100.00;99927.38;4342535;32;20173;-76
2021/12/25 02:22:08;;;;;;;3.15;3.05;;;;;;;4.55;100.00;100018.97;4352062;32;20093;-73
2021/12/25 02:24:36;;;;;;;3.30;3.20;;;;;;;4.47;100.00;100005.41;4338186;32;20982;-74
2021/12/25 02:27:01;;;;;;;2.92;2.83;;;;;;;4.51;100.00;100012.19;4341974;32;20077;-75
2021/12/25 02:29:26;;;;;;;4.65;4.45;;;;;;;4.24;100.00;99969.94;4355519;32;20066;-76
2021/12/25 02:31:52;;;;;;;3.20;3.10;;;;;;;4.47;100.00;100008.88;4353269;32;20085;-76
2021/12/25 02:34:17;;;;;;;4.12;3.95;;;;;;;4.18;100.00;99958.03;4349226;32;20470;-76
2021/12/25 02:36:42;;;;;;;3.20;3.10;;;;;;;4.10;100.00;99955.72;4352534;32;20180;-74
2021/12/25 02:39:08;;;;;;;3.10;3.00;;;;;;;4.45;100.00;100010.69;4352347;32;20084;-75
2021/12/25 02:41:33;;;;;;;3.30;3.20;;;;;;;4.42;100.00;100009.97;4349462;32;20100;-77
2021/12/25 02:43:58;;;;;;;3.20;3.10;;;;;;;4.36;100.00;100005.84;4352828;32;20621;-75
2021/12/25 02:46:25;;;;;;;4.65;4.45;;;;;;;4.34;100.00;100000.69;4348632;32;20127;-74
2021/12/25 02:48:52;;;;;;;3.20;3.10;;;;;;;3.37;100.00;99860.66;4359218;32;20093;-76
2021/12/25 02:51:18;;;;;;;4.18;4.00;;;;;;;4.25;100.00;100023.56;4351446;32;20092;-73
2021/12/25 02:53:43;;;;;;;3.10;3.00;;;;;;;4.24;100.00;100004.53;4362860;32;20542;-74
2021/12/25 02:56:09;;;;;;;3.30;3.20;;;;;;;3.98;100.00;99964.81;4356005;32;20611;-73
2021/12/25 02:58:34;;;;;;;3.55;3.45;;;;;;;4.14;100.00;99996.25;4348439;32;20192;-74
2021/12/25 03:01:06;;;;;;;3.00;2.90;;;;;;;4.10;100.00;100005.06;4356747;32;20211;-73
2021/12/25 03:03:32;;;;;;;3.30;3.20;;;;;;;4.06;100.00;100006.06;4338633;32;20090;-75
2021/12/25 03:05:57;;;;;;;3.10;3.00;;;;;;;3.98;100.00;99995.97;4338378;32;20136;-72
2021/12/25 03:08:22;;;;;;;4.75;4.55;;;;;;;4.02;100.00;100003.66;4356989;32;20458;-75
2021/12/25 03:10:48;;;;;;;3.30;3.20;;;;;;;3.98;100.00;100010.69;4355007;32;20670;-73
2021/12/25 03:15:45;;;;;;;3.08;2.97;;;;;;;3.97;100.00;100007.25;4351522;32;20694;-75
2021/12/25 03:18:25;;;;;;;3.00;2.90;;;;;;;2.77;100.00;99829.91;4348040;32;20513;-75
2021/12/25 03:20:56;;;;;;;3.10;3.00;;;;;;;3.89;100.00;99998.91;4352687;32;20071;-74
2021/12/25 03:23:22;;;;;;;4.35;4.15;;;;;;;3.90;100.00;100003.19;4350564;32;20073;-76
2021/12/25 03:25:48;;;;;;;3.00;2.90;;;;;;;3.83;100.00;100011.22;4352759;32;20120;-75
2021/12/25 03:28:15;;;;;;;3.20;3.10;;;;;;;3.33;100.00;99950.69;4352809;32;20074;-73
2021/12/25 03:30:40;;;;;;;3.10;3.00;;;;;;;3.34;100.00;99941.16;4356734;32;20088;-74
2021/12/25 03:33:07;;;;;;;3.20;3.10;;;;;;;3.68;100.00;100013.47;4356080;32;20165;-74
2021/12/25 03:35:34;;;;;;;3.00;2.90;;;;;;;2.59;100.00;99839.13;4355566;32;20115;-74
2021/12/25 03:38:05;;;;;;;3.00;2.90;;;;;;;3.70;100.00;100024.63;4353710;32;20078;-73
2021/12/25 03:40:31;;;;;;;3.60;3.50;;;;;;;3.69;100.00;100019.50;4356585;32;20474;-75
2021/12/25 03:42:56;;;;;;;3.00;2.90;;;;;;;3.69;100.00;100022.09;4359673;32;20447;-72
2021/12/25 03:45:23;;;;;;;4.65;4.45;;;;;;;3.57;100.00;99998.28;4357772;32;20364;-74
2021/12/25 03:47:51;;;;;;;3.12;3.03;;;;;;;3.59;100.00;100014.63;4354943;32;20078;-74
2021/12/25 03:53:26;;;;;;;3.33;3.22;;;;;;;3.52;100.00;100023.53;4369469;32;20105;-75
2021/12/25 03:58:35;;;;;;;4.35;4.10;;;;;;;3.28;100.00;99995.81;4357791;32;20088;-76
2021/12/25 04:01:14;;;;;;;3.00;2.90;;;;;;;3.37;100.00;100021.47;4339769;32;20093;-74
2021/12/25 04:03:49;;;;;;;2.80;2.70;;;;;;;3.37;100.00;100013.69;4341371;32;20070;-75
2021/12/25 04:06:14;;;;;;;3.42;3.30;;;;;;;3.32;100.00;100026.78;4339824;32;20080;-77
2021/12/25 04:08:44;;;;;;;2.90;2.80;;;;;;;3.30;100.00;100017.38;4349037;32;20085;-75
2021/12/25 04:11:14;;;;;;;3.35;3.15;;;;;;;3.28;100.00;100024.34;4353019;32;20074;-76
2021/12/25 04:13:39;;;;;;;2.90;2.80;;;;;;;3.26;100.00;100020.97;4349903;32;20092;-74
2021/12/25 04:16:05;;;;;;;3.00;2.90;;;;;;;3.15;100.00;100016.97;4360846;32;20698;-74
2021/12/25 04:18:30;;;;;;;4.57;4.37;;;;;;;3.15;100.00;100022.16;4352930;32;20245;-74
2021/12/25 04:20:55;;;;;;;2.95;2.85;;;;;;;3.13;100.00;100026.56;4354238;32;20076;-75
2021/12/25 04:23:25;;;;;;;4.55;4.35;;;;;;;3.11;100.00;100030.94;4352463;32;20070;-75
2021/12/25 04:25:53;;;;;;;3.00;2.90;;;;;;;3.08;100.00;100025.00;4343381;32;20076;-74
2021/12/25 04:28:36;;;;;;;6.80;4.65;;;;;;;3.04;100.00;100031.19;4350782;32;20801;-74
2021/12/25 05:01:45;;;;;;;4.75;4.55;;;;;;;2.92;100.00;100053.16;4357370;32;20484;-75
2021/12/25 05:03:47;;;;;;;2.87;2.78;;;;;;;2.72;100.00;100062.38;4355641;32;20777;-74
2021/12/25 05:06:13;;;;;;;3.10;3.00;;;;;;;1.68;100.00;99884.25;4356649;32;20103;-75
2021/12/25 05:08:38;;;;;;;3.20;3.10;;;;;;;2.72;100.00;100070.13;4355170;32;20571;-73
2021/12/25 05:11:03;;;;;;;3.10;3.00;;;;;;;2.63;100.00;100067.84;4354958;32;20693;-75
2021/12/25 05:13:29;;;;;;;4.65;4.45;;;;;;;2.64;100.00;100066.94;4350532;32;20088;-73
2021/12/25 05:15:55;;;;;;;3.00;2.90;;;;;;;2.55;100.00;100046.50;4357495;32;20085;-73
2021/12/25 05:18:20;;;;;;;2.80;2.70;;;;;;;2.65;100.00;100063.47;4355403;32;20592;-74
2021/12/25 05:20:46;;;;;;;2.75;2.65;;;;;;;2.51;100.00;100047.50;4364879;32;20083;-74
2021/12/25 05:23:11;;;;;;;3.20;3.10;;;;;;;1.36;100.00;99879.09;4346531;32;20212;-75
2021/12/25 05:25:37;;;;;;;3.00;2.90;;;;;;;2.52;100.00;100044.81;4351751;32;20557;-74
2021/12/25 05:28:02;;;;;;;3.30;3.00;;;;;;;2.54;100.00;100066.34;4350429;32;20104;-74
2021/12/25 05:30:28;;;;;;;5.07;4.87;;;;;;;2.51;100.00;100063.03;4365039;32;20207;-73
2021/12/25 05:32:54;;;;;;;2.62;2.53;;;;;;;2.29;100.00;100053.28;4354680;32;20092;-74
2021/12/25 05:35:19;;;;;;;4.40;4.20;;;;;;;2.32;100.00;100067.87;4354002;32;20061;-74
2021/12/25 05:37:45;;;;;;;2.72;2.62;;;;;;;2.05;100.00;100038.44;4352864;32;20152;-75
2021/12/25 05:40:12;;;;;;;3.15;2.87;;;;;;;2.24;100.00;100073.25;4356460;32;20065;-73
2021/12/25 05:42:37;;;;;;;3.03;2.92;;;;;;;2.22;100.00;100077.63;4352568;32;20742;-74
2021/12/25 05:45:03;;;;;;;3.00;2.83;;;;;;;2.17;100.00;100074.34;4338687;32;20408;-72
2021/12/25 05:47:28;;;;;;;4.60;4.40;;;;;;;2.15;100.00;100078.72;4353365;32;20198;-74
2021/12/25 05:49:54;;;;;;;3.08;2.97;;;;;;;2.07;100.00;100093.59;4354924;32;20081;-72
2021/12/25 05:52:19;;;;;;;4.45;4.25;;;;;;;2.10;100.00;100076.22;4350797;32;20686;-72
2021/12/25 05:54:44;;;;;;;2.87;2.78;;;;;;;2.07;100.00;100075.47;4361421;32;20085;-73
2021/12/25 05:57:10;;;;;;;2.78;2.67;;;;;;;2.03;100.00;100076.47;4348071;32;20387;-74
2021/12/25 05:59:35;;;;;;;2.75;2.65;;;;;;;1.67;100.00;100027.41;4348395;32;20352;-75
2021/12/25 06:02:01;;;;;;;3.47;3.28;;;;;;;1.99;100.00;100086.03;4352495;32;20557;-76
2021/12/25 06:04:26;;;;;;;5.40;5.10;;;;;;;1.56;100.00;100020.78;4349770;32;20073;-75
2021/12/25 06:06:51;;;;;;;2.90;2.80;;;;;;;1.96;100.00;100088.69;4357264;32;20773;-76
2021/12/25 06:09:18;;;;;;;3.58;3.47;;;;;;;1.90;100.00;100092.28;4355172;32;20097;-75
2021/12/25 06:11:45;;;;;;;2.80;2.70;;;;;;;1.89;100.00;100095.78;4359725;32;20093;-73
2021/12/25 06:14:17;;;;;;;2.70;2.60;;;;;;;1.89;100.00;100103.53;4358810;32;20074;-74
2021/12/25 06:16:42;;;;;;;2.80;2.70;;;;;;;1.88;100.00;100098.41;4358747;32;20159;-73
2021/12/25 06:19:08;;;;;;;2.70;2.60;;;;;;;1.78;100.00;100095.19;4365656;32;20080;-74
2021/12/25 06:21:33;;;;;;;3.17;3.08;;;;;;;1.80;100.00;100101.19;4357570;32;20077;-75
2021/12/25 06:24:02;;;;;;;2.80;2.70;;;;;;;1.82;100.00;100108.91;4350413;32;20074;-75
2021/12/25 06:26:27;;;;;;;3.95;3.78;;;;;;;1.85;100.00;100120.03;4353604;32;20909;-74
2021/12/25 06:28:53;;;;;;;2.70;2.60;;;;;;;1.36;100.00;100039.38;4352674;32;20166;-74
2021/12/25 06:31:18;;;;;;;3.65;3.53;;;;;;;1.81;100.00;100112.41;4355612;32;20080;-74
2021/12/25 06:33:44;;;;;;;2.95;2.83;;;;;;;1.86;100.00;100132.06;4354786;32;20104;-74
2021/12/25 06:36:09;;;;;;;2.60;2.50;;;;;;;1.85;100.00;100135.56;4356288;32;20387;-74
2021/12/25 06:38:35;;;;;;;3.30;3.10;;;;;;;1.84;100.00;100133.84;4352596;32;20406;-75
2021/12/25 06:41:01;;;;;;;2.80;2.70;;;;;;;1.84;100.00;100128.66;4357644;32;20069;-74
2021/12/25 06:43:26;;;;;;;4.37;4.18;;;;;;;1.49;100.00;100076.09;4356930;32;20076;-74
2021/12/25 06:45:51;;;;;;;3.12;3.03;;;;;;;1.79;100.00;100139.16;4354768;32;20085;-73
2021/12/25 06:48:17;;;;;;;3.30;3.20;;;;;;;1.79;100.00;100141.72;4353426;32;20785;-75
2021/12/25 06:50:43;;;;;;;2.70;2.60;;;;;;;1.74;100.00;100142.72;4357246;32;20093;-75
2021/12/25 06:53:08;;;;;;;2.60;2.50;;;;;;;1.72;100.00;100144.50;4355211;32;20089;-75
2021/12/25 06:55:33;;;;;;;3.10;3.00;;;;;;;1.75;100.00;100145.28;4353032;32;20092;-76
2021/12/25 06:58:00;;;;;;;2.60;2.50;;;;;;;1.75;100.00;100149.63;4340636;32;20081;-74
2021/12/25 07:00:27;;;;;;;4.90;4.70;;;;;;;1.67;100.00;100143.78;4356805;32;20072;-75
2021/12/25 07:02:52;;;;;;;3.00;2.85;;;;;;;1.67;100.00;100151.53;4351735;32;20086;-74
2021/12/25 07:05:18;;;;;;;3.80;3.65;;;;;;;1.34;100.00;100102.31;4356485;32;20054;-72
2021/12/25 07:07:43;;;;;;;2.70;2.60;;;;;;;1.54;100.00;100146.69;4337853;32;20497;-73
2021/12/25 07:10:09;;;;;;;2.70;2.60;;;;;;;1.57;100.00;100156.94;4359395;32;20113;-74
2021/12/25 07:12:37;;;;;;;2.70;2.60;;;;;;;1.55;100.00;100165.63;4349075;32;20410;-75
2021/12/25 07:15:04;;;;;;;2.70;2.60;;;;;;;1.25;100.00;100107.72;4358491;32;20540;-74
2021/12/25 07:17:29;;;;;;;4.35;4.15;;;;;;;1.56;100.00;100169.88;4358020;32;20085;-74
2021/12/25 07:19:55;;;;;;;2.70;2.60;;;;;;;1.48;100.00;100171.81;4355534;32;20490;-74
2021/12/25 07:22:20;;;;;;;4.90;4.70;;;;;;;1.49;100.00;100171.78;4346796;32;20077;-74
2021/12/25 07:24:45;;;;;;;3.00;2.90;;;;;;;1.44;100.00;100171.03;4351617;32;20072;-72
2021/12/25 07:27:11;;;;;;;2.90;2.80;;;;;;;1.43;100.00;100168.50;4350339;32;20054;-74
2021/12/25 07:29:37;;;;;;;2.60;2.50;;;;;;;1.30;100.00;100163.56;4353447;32;20069;-74
2021/12/25 07:32:03;;;;;;;2.50;2.40;;;;;;;0.93;100.00;100098.97;4351449;32;20085;-75
2021/12/25 07:34:28;;;;;;;4.75;4.55;;;;;;;1.45;100.00;100193.41;4346989;32;20271;-74
2021/12/25 07:36:53;;;;;;;3.08;2.97;;;;;;;1.45;100.00;100190.84;4353590;32;20347;-74
2021/12/25 07:39:19;;;;;;;4.62;4.43;;;;;;;1.45;100.00;100193.41;4350944;32;20386;-72
2021/12/25 07:41:44;;;;;;;2.75;2.65;;;;;;;0.33;100.00;100033.97;4357937;32;20075;-72
2021/12/25 07:44:10;;;;;;;2.92;2.83;;;;;;;1.44;100.00;100202.03;4355010;32;20070;-73
2021/12/25 07:46:35;;;;;;;3.10;3.00;;;;;;;1.39;100.00;100186.66;4361068;32;20160;-74
2021/12/25 07:49:00;;;;;;;2.50;2.40;;;;;;;0.92;100.00;100120.50;4350150;32;20388;-74
2021/12/25 07:51:26;;;;;;;5.40;5.15;;;;;;;1.46;100.00;100209.78;4351058;32;20082;-73
2021/12/25 07:53:51;;;;;;;4.10;3.80;;;;;;;1.34;100.00;100190.22;4351632;32;20084;-73
2021/12/25 07:56:16;;;;;;;3.60;3.47;;;;;;;1.44;100.00;100208.97;4347450;32;20357;-73
2021/12/25 07:58:42;;;;;;;2.80;2.70;;;;;;;0.92;100.00;100130.84;4350690;32;20078;-73
2021/12/25 08:01:08;;;;;;;2.60;2.50;;;;;;;1.43;100.00;100217.63;4348121;32;20077;-73
2021/12/25 08:03:35;;;;;;;3.15;3.05;;;;;;;1.41;100.00;100220.22;4334614;32;20486;-74
2021/12/25 08:06:00;;;;;;;3.33;3.12;;;;;;;0.29;100.00;100044.37;4341179;32;20571;-73
2021/12/25 08:08:26;;;;;;;4.68;4.47;;;;;;;1.28;100.00;100205.88;4352964;32;20068;-74
2021/12/25 08:10:51;;;;;;;3.28;3.17;;;;;;;0.72;100.00;100116.62;4357186;32;20505;-72
2021/12/25 08:13:16;;;;;;;4.03;3.85;;;;;;;0.59;100.00;100097.13;4352345;32;20633;-75
2021/12/25 08:15:42;;;;;;;2.55;2.45;;;;;;;1.17;100.00;100198.34;4351964;32;20092;-74
2021/12/25 08:18:07;;;;;;;2.53;2.42;;;;;;;1.21;100.00;100212.06;4365552;32;20716;-75
2021/12/25 08:20:34;;;;;;;2.80;2.70;;;;;;;1.17;100.00;100199.19;4351914;32;20110;-75
2021/12/25 08:22:59;;;;;;;2.90;2.80;;;;;;;1.33;100.00;100235.91;4360886;32;20066;-73
2021/12/25 08:25:25;;;;;;;2.70;2.60;;;;;;;1.32;100.00;100235.94;4344547;32;20092;-74
2021/12/25 08:27:50;;;;;;;2.60;2.50;;;;;;;1.37;100.00;100231.53;4351218;32;20549;-75
2021/12/25 08:30:17;;;;;;;3.22;3.10;;;;;;;1.32;100.00;100241.97;4349119;32;20101;-74
2021/12/25 08:32:43;;;;;;;2.90;2.80;;;;;;;1.20;100.00;100229.28;4342091;32;20108;-74
2021/12/25 08:35:09;;;;;;;2.80;2.70;;;;;;;1.30;100.00;100241.13;4351299;32;20089;-74
2021/12/25 08:37:34;;;;;;;2.70;2.60;;;;;;;1.32;100.00;100243.69;4335357;32;21835;-75
2021/12/25 08:40:00;;;;;;;2.90;2.80;;;;;;;1.33;100.00;100245.41;4357403;32;20109;-74
2021/12/25 08:42:26;;;;;;;4.35;4.15;;;;;;;0.96;100.00;100195.34;4355580;32;20078;-75
2021/12/25 08:45:05;;;;;;;2.40;2.30;;;;;;;1.23;100.00;100260.25;4357453;32;20142;-75
2021/12/25 08:47:32;;;;;;;4.45;4.25;;;;;;;1.19;100.00;100251.72;4351898;32;20065;-76
2021/12/25 08:49:58;;;;;;;3.08;2.97;;;;;;;0.76;100.00;100172.50;4348602;32;20100;-74
2021/12/25 08:52:24;;;;;;;4.45;4.20;;;;;;;1.12;100.00;100236.34;4338944;32;20604;-75
2021/12/25 08:54:49;;;;;;;2.70;2.60;;;;;;;1.05;100.00;100245.97;4351594;32;20065;-75
2021/12/25 08:57:19;;;;;;;3.08;2.97;;;;;;;0.61;100.00;100164.22;4363855;32;20196;-74
2021/12/25 08:59:44;;;;;;;2.85;2.75;;;;;;;0.75;100.00;100186.28;4359153;32;20062;-75
2021/12/25 09:02:13;;;;;;;2.58;2.47;;;;;;;1.04;100.00;100252.00;4353850;32;20244;-75
2021/12/25 09:04:38;;;;;;;2.47;2.37;;;;;;;1.07;100.00;100258.88;4356754;32;20088;-74
2021/12/25 09:07:04;;;;;;;2.87;2.78;;;;;;;1.11;100.00;100263.94;4340687;32;20923;-76
2021/12/25 09:09:29;;;;;;;4.35;4.15;;;;;;;1.16;100.00;100277.63;4357876;32;20576;-76
2021/12/25 09:11:55;;;;;;;2.65;2.55;;;;;;;0.03;100.00;100091.34;4358363;32;20081;-77
2021/12/25 09:14:20;;;;;;;5.10;4.85;;;;;;;1.18;100.00;100275.88;4354578;32;20081;-76
2021/12/25 09:16:46;;;;;;;2.70;2.60;;;;;;;1.06;100.00;100270.06;4357163;32;20332;-75
2021/12/25 09:19:11;;;;;;;2.80;2.70;;;;;;;1.03;100.00;100260.66;4359653;32;20132;-74
2021/12/25 09:21:36;;;;;;;3.05;2.95;;;;;;;1.21;100.00;100289.59;4349414;32;20403;-74
2021/12/25 09:24:02;;;;;;;2.50;2.40;;;;;;;0.69;100.00;100209.66;4350081;32;20081;-74
2021/12/25 09:26:27;;;;;;;4.37;4.18;;;;;;;1.21;100.00;100292.19;4337041;32;20235;-74
2021/12/25 09:28:52;;;;;;;2.55;2.45;;;;;;;0.22;100.00;100123.66;4356862;32;20081;-74
2021/12/25 09:31:18;;;;;;;4.22;4.03;;;;;;;1.22;100.00;100291.28;4352091;32;20078;-75
2021/12/25 09:33:43;;;;;;;2.58;2.47;;;;;;;1.21;100.00;100274.94;4362528;32;20648;-74
2021/12/25 09:36:08;;;;;;;2.70;2.60;;;;;;;1.31;100.00;100296.28;4348536;32;20074;-73
2021/12/25 09:38:34;;;;;;;2.70;2.60;;;;;;;1.28;100.00;100304.94;4338810;32;20395;-72
2021/12/25 09:41:00;;;;;;;2.60;2.50;;;;;;;1.18;100.00;100272.41;4359806;32;20092;-74
2021/12/25 09:43:25;;;;;;;5.18;4.95;;;;;;;1.29;100.00;100298.06;4339829;32;20099;-74
2021/12/25 09:45:51;;;;;;;2.80;2.70;;;;;;;0.88;100.00;100222.19;4357020;32;20470;-74
2021/12/25 09:48:17;;;;;;;3.75;3.60;;;;;;;1.41;100.00;100302.97;4347605;32;20221;-73
2021/12/25 09:50:42;;;;;;;2.60;2.50;;;;;;;1.31;100.00;100298.88;4338527;32;20065;-74
2021/12/25 09:53:08;;;;;;;2.90;2.80;;;;;;;1.44;100.00;100313.22;4350830;32;20068;-74
2021/12/25 09:55:34;;;;;;;3.00;2.90;;;;;;;0.35;100.00;100139.75;4351794;32;20077;-73
2021/12/25 09:57:59;;;;;;;2.72;2.62;;;;;;;1.46;100.00;100319.22;4354229;32;20576;-73
2021/12/25 10:00:26;;;;;;;5.32;5.05;;;;;;;1.42;100.00;100325.34;4349924;32;20108;-73
2021/12/25 10:02:53;;;;;;;2.62;2.53;;;;;;;1.12;100.00;100263.06;4359052;32;20065;-73
2021/12/25 10:05:29;;;;;;;3.42;3.33;;;;;;;1.44;100.00;100321.00;4341081;32;20078;-73
2021/12/25 10:08:12;;;;;;;2.60;2.50;;;;;;;0.04;100.00;100114.53;4359511;32;20167;-74
2021/12/25 10:10:45;;;;;;;2.95;2.85;;;;;;;0.98;100.00;100265.06;4335710;32;20081;-73
2021/12/25 10:13:20;;;;;;;3.10;3.00;;;;;;;1.40;100.00;100332.28;4348892;32;20595;-73
2021/12/25 10:15:45;;;;;;;2.50;2.40;;;;;;;1.41;100.00;100334.00;4381223;32;20065;-74
2021/12/25 10:18:10;;;;;;;2.50;2.40;;;;;;;1.34;100.00;100329.81;4355405;32;20084;-74
2021/12/25 10:20:36;;;;;;;2.60;2.50;;;;;;;1.33;100.00;100325.53;4350287;32;20679;-74
2021/12/25 10:23:13;;;;;;;3.03;2.92;;;;;;;1.36;100.00;100330.62;4354010;32;20100;-74
2021/12/25 10:25:42;;;;;;;2.90;2.80;;;;;;;1.37;100.00;100325.44;4365671;32;20073;-74
2021/12/25 10:28:08;;;;;;;2.67;2.58;;;;;;;1.37;100.00;100322.00;4363756;32;20446;-73
2021/12/25 10:30:54;;;;;;;2.50;2.40;;;;;;;1.39;100.00;100328.00;4343047;32;20456;-74
2021/12/25 10:33:44;;;;;;;4.28;4.10;;;;;;;1.38;100.00;100327.16;4376454;32;20070;-74
2021/12/25 10:36:22;;;;;;;2.47;2.37;;;;;;;1.37;100.00;100322.00;4350514;32;20070;-74
2021/12/25 10:39:06;;;;;;;2.80;2.70;;;;;;;1.46;100.00;100313.22;4368118;32;20617;-74
2021/12/25 10:41:35;;;;;;;5.40;5.10;;;;;;;1.41;100.00;100294.37;4371023;32;20328;-75
2021/12/25 10:44:09;;;;;;;2.70;2.60;;;;;;;1.52;100.00;100313.91;4357194;32;20605;-73
2021/12/25 10:46:58;;;;;;;2.70;2.60;;;;;;;0.05;100.00;100066.38;4375771;32;20518;-72
2021/12/25 10:49:25;;;;;;;4.03;3.85;;;;;;;0.93;100.00;100202.31;4338045;32;20080;-74
2021/12/25 10:51:50;;;;;;;2.80;2.70;;;;;;;1.10;100.00;100248.47;4347279;32;20090;-74
2021/12/25 10:54:17;;;;;;;2.58;2.47;;;;;;;1.55;100.00;100303.53;4337064;32;20087;-73
2021/12/25 10:56:44;;;;;;;2.90;2.80;;;;;;;1.58;100.00;100298.28;4355466;32;20099;-73
2021/12/25 10:59:11;;;;;;;2.70;2.60;;;;;;;1.73;100.00;100297.09;4353594;32;20147;-74
2021/12/25 11:01:42;;;;;;;2.80;2.70;;;;;;;1.73;100.00;100299.69;4338898;32;20134;-75
2021/12/25 11:04:30;;;;;;;2.45;2.35;;;;;;;1.73;100.00;100304.84;4342539;32;20556;-76
2021/12/25 11:06:56;;;;;;;2.50;2.40;;;;;;;1.33;99.93;100237.66;4362218;32;20216;-74
2021/12/25 11:09:21;;;;;;;4.45;4.25;;;;;;;1.71;99.41;100305.78;4356142;32;20081;-77
2021/12/25 11:12:19;;;;;;;2.97;2.87;;;;;;;1.73;99.70;100309.19;4359348;32;20094;-74
2021/12/25 11:14:45;;;;;;;2.60;2.50;;;;;;;1.68;99.20;100313.59;4364756;32;20614;-74
2021/12/25 11:17:23;;;;;;;2.80;2.70;;;;;;;1.55;98.67;100289.75;4362776;32;20069;-75
2021/12/25 11:19:58;;;;;;;2.60;2.50;;;;;;;1.72;98.36;100320.41;4344382;32;20599;-73
2021/12/25 11:22:25;;;;;;;4.55;4.35;;;;;;;1.69;98.70;100320.50;4352138;32;20664;-73
2021/12/25 11:24:50;;;;;;;3.03;2.92;;;;;;;1.12;97.67;100233.78;4355248;32;20548;-75
2021/12/25 11:27:15;;;;;;;5.97;5.72;;;;;;;1.50;98.14;100301.91;4352469;32;20075;-74
2021/12/25 11:29:41;;;;;;;3.05;2.87;;;;;;;1.63;98.82;100323.22;4354482;32;20074;-74
2021/12/25 11:32:08;;;;;;;2.87;2.78;;;;;;;1.24;99.47;100266.25;4354256;32;20090;-75
2021/12/25 11:34:33;;;;;;;3.53;3.42;;;;;;;1.56;100.00;100319.88;4335886;32;20058;-74
2021/12/25 11:37:00;;;;;;;2.53;2.42;;;;;;;1.26;99.01;100287.75;4355842;32;20095;-75
2021/12/25 11:39:26;;;;;;;4.55;4.35;;;;;;;1.55;98.90;100333.72;4353089;32;20104;-75
2021/12/25 11:41:56;;;;;;;2.90;2.80;;;;;;;1.46;99.54;100321.81;4353757;32;20085;-74
2021/12/25 11:44:40;;;;;;;4.15;3.95;;;;;;;1.50;99.07;100330.34;4367380;32;20066;-74
2021/12/25 11:47:06;;;;;;;2.55;2.45;;;;;;;1.53;99.71;100319.97;4376172;32;20084;-75
2021/12/25 11:49:32;;;;;;;4.35;4.15;;;;;;;1.54;99.64;100322.53;4351817;32;20065;-75
2021/12/25 11:52:14;;;;;;;2.70;2.60;;;;;;;1.47;98.92;100308.00;4355064;32;20070;-75
2021/12/25 11:55:16;;;;;;;2.67;2.58;;;;;;;0.58;99.07;100170.28;4352850;32;20093;-76
2021/12/25 12:00:13;;;;;;;2.70;2.60;;;;;;;1.18;98.87;100283.63;4365867;32;20929;-74
2021/12/25 12:02:40;;;;;;;2.60;2.50;;;;;;;1.11;99.35;100266.53;4342142;32;20120;-73
2021/12/25 12:05:25;;;;;;;2.70;2.60;;;;;;;1.41;99.85;100323.66;4339964;32;20095;-74
2021/12/25 12:08:11;;;;;;;2.55;2.45;;;;;;;1.28;98.85;100286.00;4372279;32;20537;-75
2021/12/25 12:10:47;;;;;;;3.10;3.00;;;;;;;1.34;98.67;100304.84;4347738;32;20404;-76
2021/12/25 12:13:29;;;;;;;2.70;2.60;;;;;;;1.27;98.39;100310.16;4348083;32;20066;-74
2021/12/25 12:15:56;;;;;;;2.60;2.50;;;;;;;1.15;98.71;100291.41;4361044;32;20638;-74
2021/12/25 12:18:29;;;;;;;4.65;4.45;;;;;;;1.24;98.30;100310.22;4345862;32;20070;-75
2021/12/25 12:20:59;;;;;;;2.60;2.50;;;;;;;1.16;97.90;100305.19;4366066;32;20091;-75
2021/12/25 12:23:51;;;;;;;4.68;4.47;;;;;;;0.62;97.30;100220.97;4353337;32;20113;-74
2021/12/25 12:26:44;;;;;;;2.70;2.60;;;;;;;1.13;97.99;100300.09;4349765;32;20109;-75
2021/12/25 12:29:10;;;;;;;2.50;2.40;;;;;;;1.10;98.32;100298.44;4369375;32;20126;-76
2021/12/25 12:31:43;;;;;;;3.15;3.05;;;;;;;1.13;97.99;100303.53;4353324;32;20619;-75
2021/12/25 12:34:40;;;;;;;;;;;;;;;1.23;97.51;100317.12;4365305;32;20070;-73
2021/12/25 12:37:15;;;;;;;2.50;2.40;;;;;;;1.25;97.47;100330.03;4336572;32;20060;-76
2021/12/25 12:39:40;;;;;;;2.40;2.30;;;;;;;1.19;97.21;100321.50;4379313;32;20961;-74
2021/12/25 12:42:09;;;;;;;2.50;2.40;;;;;;;1.24;97.66;100323.97;4353688;32;20088;-76
2021/12/25 12:44:36;;;;;;;3.10;3.00;;;;;;;0.48;97.21;100205.78;4361736;32;20099;-74
2021/12/25 12:47:03;;;;;;;2.62;2.53;;;;;;;1.14;97.32;100323.34;4353833;32;20900;-75